createdAt,value
2018-08-10T00:00:30.778Z,0.00
2018-08-10T00:01:30.805Z,0.00
2018-08-10T00:02:30.831Z,0.00
2018-08-10T00:03:30.856Z,0.00
2018-08-10T00:04:30.881Z,0.00
2018-08-10T00:05:30.897Z,0.00
2018-08-10T00:06:30.921Z,0.00
2018-08-10T00:07:30.948Z,0.00
2018-08-10T00:08:30.976Z,0.00
2018-08-10T00:09:30.998Z,0.00
2018-08-10T00:10:31.024Z,0.00
2018-08-10T00:11:31.051Z,0.00
2018-08-10T00:12:31.064Z,0.00
2018-08-10T00:13:31.089Z,0.00
2018-08-10T00:14:31.115Z,0.00
2018-08-10T00:15:31.141Z,0.00
2018-08-10T00:16:31.167Z,0.00
2018-08-10T00:17:31.193Z,0.00
2018-08-10T00:18:31.206Z,0.00
2018-08-10T00:19:31.233Z,0.00
2018-08-10T00:20:31.258Z,0.00
2018-08-10T00:21:31.285Z,0.00
2018-08-10T00:22:31.315Z,0.00
2018-08-10T00:23:31.337Z,0.00
2018-08-10T00:24:31.351Z,0.00
2018-08-10T00:25:31.376Z,0.00
2018-08-10T00:26:31.401Z,0.00
2018-08-10T00:27:31.427Z,0.00
2018-08-10T00:28:31.453Z,0.00
2018-08-10T00:29:31.479Z,0.00
2018-08-10T00:30:31.493Z,0.00
2018-08-10T00:31:31.519Z,0.00
2018-08-10T00:32:31.544Z,0.00
2018-08-10T00:33:31.571Z,0.00
2018-08-10T00:34:31.597Z,0.00
2018-08-10T00:35:31.622Z,0.00
2018-08-10T00:36:31.637Z,0.00
2018-08-10T00:37:31.674Z,0.00
2018-08-10T00:38:31.687Z,0.00
2018-08-10T00:39:31.713Z,0.00
2018-08-10T00:40:31.739Z,0.00
2018-08-10T00:41:31.765Z,0.00
2018-08-10T00:42:31.779Z,0.00
2018-08-10T00:43:31.805Z,0.00
2018-08-10T00:44:31.830Z,0.00
2018-08-10T00:45:31.857Z,0.00
2018-08-10T00:46:31.883Z,0.00
2018-08-10T00:47:31.908Z,0.00
2018-08-10T00:48:31.922Z,0.00
2018-08-10T00:49:31.977Z,0.00
2018-08-10T00:50:31.973Z,0.00
2018-08-10T00:51:32.000Z,0.00
2018-08-10T00:52:32.026Z,0.00
2018-08-10T00:53:32.040Z,0.00
2018-08-10T00:54:32.065Z,0.00
2018-08-10T00:55:32.090Z,0.00
2018-08-10T00:56:32.116Z,0.00
2018-08-10T00:57:32.143Z,0.00
2018-08-10T00:58:32.168Z,0.00
2018-08-10T00:59:32.194Z,0.00
2018-08-10T01:00:32.206Z,0.00
2018-08-10T01:01:32.233Z,0.00
2018-08-10T01:02:32.260Z,0.00
2018-08-10T01:03:32.285Z,0.00
2018-08-10T01:04:32.311Z,0.00
2018-08-10T01:05:32.325Z,0.00
2018-08-10T01:06:32.351Z,0.00
2018-08-10T01:07:32.379Z,0.00
2018-08-10T01:08:32.403Z,0.00
2018-08-10T01:09:32.429Z,0.00
2018-08-10T01:10:32.441Z,0.00
2018-08-10T01:11:32.470Z,0.00
2018-08-10T01:12:32.493Z,0.00
2018-08-10T01:13:32.620Z,0.00
2018-08-10T01:14:32.545Z,0.00
2018-08-10T01:15:32.560Z,0.00
2018-08-10T01:16:32.585Z,0.00
2018-08-10T01:17:32.612Z,0.00
2018-08-10T01:18:32.638Z,0.00
2018-08-10T01:19:32.665Z,0.00
2018-08-10T01:20:32.689Z,0.00
2018-08-10T01:21:32.701Z,0.00
2018-08-10T01:22:32.728Z,0.00
2018-08-10T01:23:32.753Z,0.00
2018-08-10T01:24:32.779Z,0.00
2018-08-10T01:25:32.808Z,0.00
2018-08-10T01:26:32.819Z,0.00
2018-08-10T01:27:32.845Z,0.00
2018-08-10T01:28:32.886Z,0.00
2018-08-10T01:29:32.899Z,0.00
2018-08-10T01:30:32.924Z,0.00
2018-08-10T01:31:32.937Z,0.00
2018-08-10T01:32:32.962Z,0.00
2018-08-10T01:33:32.987Z,0.00
2018-08-10T01:34:33.026Z,0.00
2018-08-10T01:35:33.039Z,0.00
2018-08-10T01:36:33.056Z,0.00
2018-08-10T01:37:33.079Z,0.00
2018-08-10T01:38:33.105Z,0.00
2018-08-10T01:39:33.174Z,0.00
2018-08-10T01:40:33.157Z,0.00
2018-08-10T01:41:33.201Z,0.00
2018-08-10T01:42:33.196Z,0.00
2018-08-10T01:43:33.221Z,0.00
2018-08-10T01:44:33.248Z,0.00
2018-08-10T01:45:33.274Z,0.00
2018-08-10T01:46:33.287Z,0.00
2018-08-10T01:47:33.314Z,0.00
2018-08-10T01:48:33.339Z,0.00
2018-08-10T01:49:33.364Z,0.00
2018-08-10T01:50:33.391Z,0.00
2018-08-10T01:51:33.405Z,0.00
2018-08-10T01:52:33.429Z,0.00
2018-08-10T01:53:33.457Z,0.00
2018-08-10T01:54:33.481Z,0.00
2018-08-10T01:55:33.507Z,0.00
2018-08-10T01:56:33.521Z,0.00
2018-08-10T01:57:33.547Z,0.00
2018-08-10T01:58:33.573Z,0.00
2018-08-10T01:59:33.599Z,0.00
2018-08-10T02:00:33.628Z,0.00
2018-08-10T02:01:33.638Z,0.00
2018-08-10T02:02:33.663Z,0.00
2018-08-10T02:03:33.702Z,0.00
2018-08-10T02:04:33.717Z,0.00
2018-08-10T02:05:33.741Z,0.00
2018-08-10T02:06:33.755Z,0.00
2018-08-10T02:07:33.782Z,0.00
2018-08-10T02:08:33.807Z,0.00
2018-08-10T02:09:33.833Z,0.00
2018-08-10T02:10:33.847Z,0.00
2018-08-10T02:11:33.873Z,0.00
2018-08-10T02:12:33.897Z,0.00
2018-08-10T02:13:33.936Z,0.00
2018-08-10T02:14:33.950Z,0.00
2018-08-10T02:15:33.964Z,0.00
2018-08-10T02:16:33.990Z,0.00
2018-08-10T02:17:34.015Z,0.00
2018-08-10T02:18:34.042Z,0.00
2018-08-10T02:19:34.068Z,0.00
2018-08-10T02:20:34.081Z,0.00
2018-08-10T02:21:34.106Z,0.00
2018-08-10T02:22:34.133Z,0.00
2018-08-10T02:23:34.171Z,0.00
2018-08-10T02:24:34.192Z,0.00
2018-08-10T02:25:34.198Z,0.00
2018-08-10T02:26:34.224Z,0.00
2018-08-10T02:27:34.249Z,0.00
2018-08-10T02:28:34.276Z,0.00
2018-08-10T02:29:34.288Z,0.00
2018-08-10T02:30:34.318Z,0.00
2018-08-10T02:31:34.340Z,0.00
2018-08-10T02:32:34.366Z,0.00
2018-08-10T02:33:34.380Z,0.00
2018-08-10T02:34:34.407Z,0.00
2018-08-10T02:35:34.434Z,0.00
2018-08-10T02:36:34.462Z,0.00
2018-08-10T02:37:34.471Z,0.00
2018-08-10T02:38:34.496Z,0.00
2018-08-10T02:39:34.523Z,0.00
2018-08-10T02:40:34.550Z,0.00
2018-08-10T02:41:34.574Z,0.00
2018-08-10T02:42:34.590Z,0.00
2018-08-10T02:43:34.624Z,0.00
2018-08-10T02:44:34.645Z,0.00
2018-08-10T02:45:34.667Z,0.00
2018-08-10T02:46:34.680Z,0.00
2018-08-10T02:47:34.706Z,0.00
2018-08-10T02:48:34.732Z,0.00
2018-08-10T02:49:34.757Z,0.00
2018-08-10T02:50:34.782Z,0.00
2018-08-10T02:51:34.796Z,0.00
2018-08-10T02:52:34.822Z,0.00
2018-08-10T02:53:34.848Z,0.00
2018-08-10T02:54:34.875Z,0.00
2018-08-10T02:55:34.900Z,0.00
2018-08-10T02:56:34.913Z,0.00
2018-08-10T02:57:34.939Z,0.00
2018-08-10T02:58:34.968Z,0.00
2018-08-10T02:59:34.996Z,0.00
2018-08-10T03:00:35.008Z,0.00
2018-08-10T03:01:35.031Z,0.00
2018-08-10T03:02:35.056Z,0.00
2018-08-10T03:03:35.085Z,0.00
2018-08-10T03:04:35.095Z,0.00
2018-08-10T03:05:35.120Z,0.00
2018-08-10T03:06:35.149Z,0.00
2018-08-10T03:07:35.176Z,0.00
2018-08-10T03:08:35.200Z,0.00
2018-08-10T03:09:35.213Z,0.00
2018-08-10T03:10:35.239Z,0.00
2018-08-10T03:11:35.264Z,0.00
2018-08-10T03:12:35.290Z,0.00
2018-08-10T03:13:35.316Z,0.00
2018-08-10T03:14:35.330Z,0.00
2018-08-10T03:15:35.355Z,0.00
2018-08-10T03:16:35.382Z,0.00
2018-08-10T03:17:35.408Z,0.00
2018-08-10T03:18:35.421Z,0.00
2018-08-10T03:19:35.448Z,0.00
2018-08-10T03:20:35.474Z,0.00
2018-08-10T03:21:35.499Z,0.00
2018-08-10T03:22:35.512Z,0.00
2018-08-10T03:23:35.538Z,0.00
2018-08-10T03:24:35.576Z,0.00
2018-08-10T03:25:35.588Z,0.00
2018-08-10T03:26:35.615Z,0.00
2018-08-10T03:27:35.628Z,0.00
2018-08-10T03:28:35.655Z,0.00
2018-08-10T03:29:35.681Z,0.00
2018-08-10T03:30:35.760Z,0.00
2018-08-10T03:31:35.733Z,5.63
2018-08-10T03:32:35.748Z,5.63
2018-08-10T03:33:35.772Z,5.63
2018-08-10T03:34:35.796Z,5.63
2018-08-10T03:35:35.822Z,5.63
2018-08-10T03:36:35.848Z,5.63
2018-08-10T03:37:35.867Z,11.25
2018-08-10T03:38:35.931Z,11.25
2018-08-10T03:39:35.914Z,11.25
2018-08-10T03:40:35.940Z,11.25
2018-08-10T03:41:35.954Z,11.25
2018-08-10T03:42:35.982Z,11.25
2018-08-10T03:43:36.005Z,11.25
2018-08-10T03:44:36.032Z,11.25
2018-08-10T03:45:36.056Z,11.25
2018-08-10T03:46:36.071Z,11.25
2018-08-10T03:47:36.097Z,11.25
2018-08-10T03:48:36.123Z,16.88
2018-08-10T03:49:36.151Z,16.88
2018-08-10T03:50:36.175Z,22.50
2018-08-10T03:51:36.187Z,22.50
2018-08-10T03:52:36.213Z,28.13
2018-08-10T03:53:36.251Z,28.13
2018-08-10T03:54:36.264Z,33.75
2018-08-10T03:55:36.291Z,33.75
2018-08-10T03:56:36.305Z,39.38
2018-08-10T03:57:36.330Z,39.38
2018-08-10T03:58:36.356Z,39.38
2018-08-10T03:59:36.383Z,45.00
2018-08-10T04:00:36.409Z,39.38
2018-08-10T04:01:36.422Z,39.38
2018-08-10T04:02:36.447Z,33.75
2018-08-10T04:03:36.474Z,39.38
2018-08-10T04:04:36.502Z,39.38
2018-08-10T04:05:36.526Z,39.38
2018-08-10T04:06:36.538Z,39.38
2018-08-10T04:07:36.566Z,45.00
2018-08-10T04:08:36.590Z,45.00
2018-08-10T04:09:36.616Z,50.63
2018-08-10T04:10:36.644Z,50.63
2018-08-10T04:11:36.656Z,50.63
2018-08-10T04:12:36.683Z,50.63
2018-08-10T04:13:36.706Z,50.63
2018-08-10T04:14:36.732Z,50.63
2018-08-10T04:15:36.759Z,50.63
2018-08-10T04:16:36.786Z,45.00
2018-08-10T04:17:36.798Z,45.00
2018-08-10T04:18:36.825Z,45.00
2018-08-10T04:19:36.852Z,45.00
2018-08-10T04:20:36.878Z,45.00
2018-08-10T04:21:36.902Z,45.00
2018-08-10T04:22:36.930Z,45.00
2018-08-10T04:23:36.941Z,45.00
2018-08-10T04:24:36.967Z,50.63
2018-08-10T04:25:36.993Z,56.25
2018-08-10T04:26:37.024Z,56.25
2018-08-10T04:27:37.034Z,61.88
2018-08-10T04:28:37.059Z,67.50
2018-08-10T04:29:37.125Z,73.13
2018-08-10T04:30:37.113Z,73.13
2018-08-10T04:31:37.137Z,78.75
2018-08-10T04:32:37.163Z,78.75
2018-08-10T04:33:37.175Z,78.75
2018-08-10T04:34:37.201Z,73.13
2018-08-10T04:35:37.228Z,67.50
2018-08-10T04:36:37.253Z,61.88
2018-08-10T04:37:37.279Z,56.25
2018-08-10T04:38:37.318Z,61.88
2018-08-10T04:39:37.320Z,61.88
2018-08-10T04:40:37.345Z,56.25
2018-08-10T04:41:37.372Z,50.63
2018-08-10T04:42:37.397Z,50.63
2018-08-10T04:43:37.425Z,50.63
2018-08-10T04:44:37.436Z,50.63
2018-08-10T04:45:37.475Z,50.63
2018-08-10T04:46:37.488Z,45.00
2018-08-10T04:47:37.514Z,45.00
2018-08-10T04:48:37.540Z,45.00
2018-08-10T04:49:37.554Z,45.00
2018-08-10T04:50:37.579Z,50.63
2018-08-10T04:51:37.607Z,50.63
2018-08-10T04:52:37.631Z,56.25
2018-08-10T04:53:37.657Z,67.50
2018-08-10T04:54:37.671Z,73.13
2018-08-10T04:55:37.695Z,78.75
2018-08-10T04:56:37.721Z,84.38
2018-08-10T04:57:37.747Z,84.38
2018-08-10T04:58:37.773Z,84.38
2018-08-10T04:59:37.805Z,90.00
2018-08-10T05:00:37.813Z,95.63
2018-08-10T05:01:37.840Z,106.88
2018-08-10T05:02:37.865Z,112.50
2018-08-10T05:03:37.924Z,106.88
2018-08-10T05:04:37.919Z,112.50
2018-08-10T05:05:37.931Z,118.13
2018-08-10T05:06:37.956Z,123.75
2018-08-10T05:07:37.994Z,140.63
2018-08-10T05:08:38.008Z,157.50
2018-08-10T05:09:38.034Z,174.38
2018-08-10T05:10:38.060Z,185.63
2018-08-10T05:11:38.073Z,191.25
2018-08-10T05:12:38.100Z,191.25
2018-08-10T05:13:38.125Z,191.25
2018-08-10T05:14:38.152Z,185.63
2018-08-10T05:15:38.209Z,180.00
2018-08-10T05:16:38.203Z,180.00
2018-08-10T05:17:38.216Z,180.00
2018-08-10T05:18:38.241Z,185.63
2018-08-10T05:19:38.267Z,191.25
2018-08-10T05:20:38.294Z,196.88
2018-08-10T05:21:38.322Z,208.13
2018-08-10T05:22:38.397Z,208.13
2018-08-10T05:23:38.359Z,213.75
2018-08-10T05:24:38.391Z,213.75
2018-08-10T05:25:38.411Z,208.13
2018-08-10T05:26:38.437Z,208.13
2018-08-10T05:27:38.463Z,225.00
2018-08-10T05:28:38.489Z,241.88
2018-08-10T05:29:38.502Z,241.88
2018-08-10T05:30:38.532Z,219.38
2018-08-10T05:31:38.554Z,163.13
2018-08-10T05:32:38.580Z,208.13
2018-08-10T05:33:38.605Z,219.38
2018-08-10T05:34:38.654Z,298.13
2018-08-10T05:35:38.657Z,315.00
2018-08-10T05:36:38.671Z,315.00
2018-08-10T05:37:38.698Z,315.00
2018-08-10T05:38:38.724Z,309.38
2018-08-10T05:39:38.748Z,292.50
2018-08-10T05:40:38.779Z,270.00
2018-08-10T05:41:38.800Z,264.38
2018-08-10T05:42:38.826Z,264.38
2018-08-10T05:43:38.839Z,264.38
2018-08-10T05:44:38.866Z,270.00
2018-08-10T05:45:38.891Z,281.25
2018-08-10T05:46:38.917Z,281.25
2018-08-10T05:47:38.945Z,275.63
2018-08-10T05:48:38.969Z,275.63
2018-08-10T05:49:38.987Z,281.25
2018-08-10T05:50:39.010Z,275.63
2018-08-10T05:51:39.035Z,270.00
2018-08-10T05:52:39.136Z,264.38
2018-08-10T05:53:39.088Z,264.38
2018-08-10T05:54:39.113Z,258.75
2018-08-10T05:55:39.139Z,264.38
2018-08-10T05:56:39.155Z,281.25
2018-08-10T05:57:39.177Z,298.13
2018-08-10T05:58:39.217Z,309.38
2018-08-10T05:59:39.229Z,315.00
2018-08-10T06:00:39.260Z,320.63
2018-08-10T06:01:39.281Z,315.00
2018-08-10T06:02:39.307Z,303.75
2018-08-10T06:03:39.360Z,292.50
2018-08-10T06:04:39.348Z,286.88
2018-08-10T06:05:39.375Z,270.00
2018-08-10T06:06:39.400Z,253.13
2018-08-10T06:07:39.424Z,236.25
2018-08-10T06:08:39.451Z,230.63
2018-08-10T06:09:39.477Z,230.63
2018-08-10T06:10:39.491Z,230.63
2018-08-10T06:11:39.515Z,236.25
2018-08-10T06:12:39.541Z,236.25
2018-08-10T06:13:39.568Z,236.25
2018-08-10T06:14:39.594Z,230.63
2018-08-10T06:15:39.619Z,230.63
2018-08-10T06:16:39.644Z,241.88
2018-08-10T06:17:39.660Z,258.75
2018-08-10T06:18:39.692Z,270.00
2018-08-10T06:19:39.780Z,270.00
2018-08-10T06:20:39.736Z,253.13
2018-08-10T06:21:39.842Z,241.88
2018-08-10T06:22:39.779Z,230.63
2018-08-10T06:23:39.803Z,230.63
2018-08-10T06:24:39.827Z,225.00
2018-08-10T06:25:39.853Z,219.38
2018-08-10T06:26:39.881Z,219.38
2018-08-10T06:27:39.913Z,213.75
2018-08-10T06:28:39.932Z,213.75
2018-08-10T06:29:39.945Z,208.13
2018-08-10T06:30:39.972Z,208.13
2018-08-10T06:31:39.997Z,219.38
2018-08-10T06:32:40.023Z,230.63
2018-08-10T06:33:40.102Z,236.25
2018-08-10T06:34:40.063Z,241.88
2018-08-10T06:35:40.088Z,241.88
2018-08-10T06:36:40.125Z,241.88
2018-08-10T06:37:40.139Z,241.88
2018-08-10T06:38:40.164Z,236.25
2018-08-10T06:39:40.234Z,230.63
2018-08-10T06:40:40.205Z,225.00
2018-08-10T06:41:40.230Z,225.00
2018-08-10T06:42:40.256Z,219.38
2018-08-10T06:43:40.283Z,219.38
2018-08-10T06:44:40.320Z,219.38
2018-08-10T06:45:40.323Z,213.75
2018-08-10T06:46:40.348Z,213.75
2018-08-10T06:47:40.372Z,208.13
2018-08-10T06:48:40.400Z,202.50
2018-08-10T06:49:40.424Z,196.88
2018-08-10T06:50:40.452Z,191.25
2018-08-10T06:51:40.478Z,191.25
2018-08-10T06:52:40.491Z,185.63
2018-08-10T06:53:40.516Z,180.00
2018-08-10T06:54:40.542Z,168.75
2018-08-10T06:55:40.612Z,168.75
2018-08-10T06:56:40.596Z,174.38
2018-08-10T06:57:40.608Z,180.00
2018-08-10T06:58:40.633Z,185.63
2018-08-10T06:59:40.659Z,196.88
2018-08-10T07:00:40.758Z,213.75
2018-08-10T07:01:40.842Z,236.25
2018-08-10T07:02:40.725Z,275.63
2018-08-10T07:03:40.751Z,309.38
2018-08-10T07:04:40.776Z,337.50
2018-08-10T07:05:40.805Z,360.00
2018-08-10T07:06:40.829Z,371.25
2018-08-10T07:07:40.981Z,365.63
2018-08-10T07:08:40.868Z,360.00
2018-08-10T07:09:40.896Z,360.00
2018-08-10T07:10:40.922Z,376.88
2018-08-10T07:11:40.961Z,416.25
2018-08-10T07:12:40.974Z,455.63
2018-08-10T07:13:41.057Z,478.13
2018-08-10T07:14:41.011Z,500.63
2018-08-10T07:15:41.037Z,517.50
2018-08-10T07:16:41.064Z,540.00
2018-08-10T07:17:41.092Z,556.88
2018-08-10T07:18:41.115Z,568.13
2018-08-10T07:19:41.128Z,585.00
2018-08-10T07:20:41.153Z,585.00
2018-08-10T07:21:41.181Z,540.00
2018-08-10T07:22:41.204Z,500.63
2018-08-10T07:23:41.231Z,545.63
2018-08-10T07:24:41.257Z,630.00
2018-08-10T07:25:41.271Z,669.38
2018-08-10T07:26:41.298Z,691.88
2018-08-10T07:27:41.323Z,680.63
2018-08-10T07:28:41.348Z,624.38
2018-08-10T07:29:41.375Z,551.25
2018-08-10T07:30:41.401Z,495.00
2018-08-10T07:31:41.426Z,461.25
2018-08-10T07:32:41.453Z,433.13
2018-08-10T07:33:41.465Z,405.00
2018-08-10T07:34:41.491Z,393.75
2018-08-10T07:35:41.517Z,388.13
2018-08-10T07:36:41.543Z,388.13
2018-08-10T07:37:41.569Z,388.13
2018-08-10T07:38:41.598Z,388.13
2018-08-10T07:39:41.621Z,371.25
2018-08-10T07:40:41.647Z,348.75
2018-08-10T07:41:41.666Z,343.13
2018-08-10T07:42:41.688Z,343.13
2018-08-10T07:43:41.714Z,326.25
2018-08-10T07:44:41.739Z,326.25
2018-08-10T07:45:41.764Z,337.50
2018-08-10T07:46:41.791Z,343.13
2018-08-10T07:47:41.816Z,348.75
2018-08-10T07:48:41.843Z,303.75
2018-08-10T07:49:41.870Z,275.63
2018-08-10T07:50:41.882Z,376.88
2018-08-10T07:51:41.921Z,405.00
2018-08-10T07:52:41.938Z,388.13
2018-08-10T07:53:41.961Z,354.38
2018-08-10T07:54:41.985Z,382.50
2018-08-10T07:55:42.002Z,388.13
2018-08-10T07:56:42.024Z,326.25
2018-08-10T07:57:42.053Z,326.25
2018-08-10T07:58:42.077Z,376.88
2018-08-10T07:59:42.104Z,517.50
2018-08-10T08:00:42.131Z,669.38
2018-08-10T08:01:42.157Z,781.88
2018-08-10T08:02:42.168Z,821.25
2018-08-10T08:03:42.193Z,838.13
2018-08-10T08:04:42.219Z,866.25
2018-08-10T08:05:42.247Z,916.88
2018-08-10T08:06:42.271Z,905.63
2018-08-10T08:07:42.305Z,883.13
2018-08-10T08:08:42.323Z,860.63
2018-08-10T08:09:42.336Z,843.75
2018-08-10T08:10:42.363Z,776.25
2018-08-10T08:11:42.391Z,742.50
2018-08-10T08:12:42.415Z,720.00
2018-08-10T08:13:42.470Z,725.63
2018-08-10T08:14:42.466Z,753.75
2018-08-10T08:15:42.493Z,776.25
2018-08-10T08:16:42.517Z,838.13
2018-08-10T08:17:42.543Z,894.38
2018-08-10T08:18:42.570Z,883.13
2018-08-10T08:19:42.658Z,849.38
2018-08-10T08:20:42.609Z,843.75
2018-08-10T08:21:42.648Z,978.75
2018-08-10T08:22:42.660Z,1001.25
2018-08-10T08:23:42.687Z,1018.13
2018-08-10T08:24:42.715Z,1006.88
2018-08-10T08:25:42.740Z,1035.00
2018-08-10T08:26:42.765Z,1068.75
2018-08-10T08:27:42.803Z,1130.63
2018-08-10T08:28:42.838Z,1096.88
2018-08-10T08:29:42.843Z,1068.75
2018-08-10T08:30:42.868Z,1012.50
2018-08-10T08:31:42.895Z,1001.25
2018-08-10T08:32:42.919Z,973.13
2018-08-10T08:33:42.945Z,950.63
2018-08-10T08:34:43.049Z,916.88
2018-08-10T08:35:42.999Z,866.25
2018-08-10T08:36:43.023Z,821.25
2018-08-10T08:37:43.041Z,871.88
2018-08-10T08:38:43.063Z,888.75
2018-08-10T08:39:43.090Z,900.00
2018-08-10T08:40:43.128Z,838.13
2018-08-10T08:41:43.146Z,680.63
2018-08-10T08:42:43.171Z,579.38
2018-08-10T08:43:43.193Z,675.00
2018-08-10T08:44:43.220Z,675.00
2018-08-10T08:45:43.437Z,708.75
2018-08-10T08:46:43.274Z,849.38
2018-08-10T08:47:43.297Z,939.38
2018-08-10T08:48:43.325Z,916.88
2018-08-10T08:49:43.349Z,967.50
2018-08-10T08:50:43.375Z,956.25
2018-08-10T08:51:43.401Z,939.38
2018-08-10T08:52:43.426Z,843.75
2018-08-10T08:53:43.452Z,781.88
2018-08-10T08:54:43.478Z,945.00
2018-08-10T08:55:43.507Z,1102.50
2018-08-10T08:56:43.534Z,1119.38
2018-08-10T08:57:43.558Z,1012.50
2018-08-10T08:58:43.583Z,810.00
2018-08-10T08:59:43.608Z,697.50
2018-08-10T09:00:43.635Z,714.38
2018-08-10T09:01:43.661Z,776.25
2018-08-10T09:02:43.685Z,832.50
2018-08-10T09:03:43.712Z,708.75
2018-08-10T09:04:43.740Z,663.75
2018-08-10T09:05:43.763Z,1012.50
2018-08-10T09:06:43.789Z,1018.13
2018-08-10T09:07:43.855Z,849.38
2018-08-10T09:08:43.852Z,742.50
2018-08-10T09:09:43.879Z,748.13
2018-08-10T09:10:43.906Z,815.63
2018-08-10T09:11:43.930Z,832.50
2018-08-10T09:12:43.957Z,776.25
2018-08-10T09:13:43.983Z,708.75
2018-08-10T09:14:44.012Z,736.88
2018-08-10T09:15:44.038Z,765.00
2018-08-10T09:16:44.060Z,849.38
2018-08-10T09:17:44.137Z,995.63
2018-08-10T09:18:44.111Z,1141.88
2018-08-10T09:19:44.141Z,1147.50
2018-08-10T09:20:44.164Z,1164.38
2018-08-10T09:21:44.191Z,1203.75
2018-08-10T09:22:44.217Z,1248.75
2018-08-10T09:23:44.242Z,1215.00
2018-08-10T09:24:44.268Z,1130.63
2018-08-10T09:25:44.294Z,1074.38
2018-08-10T09:26:44.319Z,1029.38
2018-08-10T09:27:44.346Z,1029.38
2018-08-10T09:28:44.371Z,1063.13
2018-08-10T09:29:44.397Z,1248.75
2018-08-10T09:30:44.423Z,1518.75
2018-08-10T09:31:44.449Z,1580.63
2018-08-10T09:32:44.488Z,1468.13
2018-08-10T09:33:44.514Z,1411.88
2018-08-10T09:34:44.543Z,1445.63
2018-08-10T09:35:44.568Z,1389.38
2018-08-10T09:36:44.591Z,1265.63
2018-08-10T09:37:44.619Z,1220.63
2018-08-10T09:38:44.645Z,1226.25
2018-08-10T09:39:44.673Z,1248.75
2018-08-10T09:40:44.708Z,1276.88
2018-08-10T09:41:44.733Z,1276.88
2018-08-10T09:42:44.759Z,1260.00
2018-08-10T09:43:44.784Z,1231.88
2018-08-10T09:44:44.811Z,1074.38
2018-08-10T09:45:44.839Z,1040.63
2018-08-10T09:46:44.863Z,1141.88
2018-08-10T09:47:44.901Z,1231.88
2018-08-10T09:48:44.927Z,1147.50
2018-08-10T09:49:44.956Z,1091.25
2018-08-10T09:50:44.979Z,1091.25
2018-08-10T09:51:45.020Z,1141.88
2018-08-10T09:52:45.031Z,1265.63
2018-08-10T09:53:45.070Z,1372.50
2018-08-10T09:54:45.096Z,1417.50
2018-08-10T09:55:45.133Z,1400.63
2018-08-10T09:56:45.147Z,1546.88
2018-08-10T09:57:45.174Z,1749.38
2018-08-10T09:58:45.199Z,1935.00
2018-08-10T09:59:45.267Z,2008.13
2018-08-10T10:00:45.267Z,1816.88
2018-08-10T10:01:45.334Z,1659.38
2018-08-10T10:02:45.316Z,1788.75
2018-08-10T10:03:45.378Z,1743.75
2018-08-10T10:04:45.382Z,1355.63
2018-08-10T10:05:45.404Z,1670.63
2018-08-10T10:06:45.431Z,2064.38
2018-08-10T10:07:45.457Z,2334.38
2018-08-10T10:08:45.484Z,1372.50
2018-08-10T10:09:45.522Z,1327.50
2018-08-10T10:10:45.550Z,1653.75
2018-08-10T10:11:45.574Z,1186.88
2018-08-10T10:12:45.611Z,1423.13
2018-08-10T10:13:45.638Z,1659.38
2018-08-10T10:14:45.664Z,1254.38
2018-08-10T10:15:45.692Z,1215.00
2018-08-10T10:16:45.728Z,1316.25
2018-08-10T10:17:45.754Z,1518.75
2018-08-10T10:18:45.779Z,1321.88
2018-08-10T10:19:45.805Z,1333.13
2018-08-10T10:20:45.843Z,2317.50
2018-08-10T10:21:45.869Z,3088.13
2018-08-10T10:22:45.896Z,2283.75
2018-08-10T10:23:45.922Z,2615.63
2018-08-10T10:24:45.960Z,2773.13
2018-08-10T10:25:45.989Z,3240.00
2018-08-10T10:26:46.013Z,2373.75
2018-08-10T10:27:46.049Z,2548.13
2018-08-10T10:28:46.075Z,2874.38
2018-08-10T10:29:46.102Z,2401.88
2018-08-10T10:30:46.140Z,2233.13
2018-08-10T10:31:46.169Z,1968.75
2018-08-10T10:32:46.226Z,1929.38
2018-08-10T10:33:46.230Z,2328.75
2018-08-10T10:34:46.256Z,3009.38
2018-08-10T10:35:46.284Z,1833.75
2018-08-10T10:36:46.321Z,2891.25
2018-08-10T10:37:46.347Z,2925.00
2018-08-10T10:38:46.398Z,2233.13
2018-08-10T10:39:46.411Z,1445.63
2018-08-10T10:40:46.450Z,1012.50
2018-08-10T10:41:46.477Z,1074.38
2018-08-10T10:42:46.514Z,1906.88
2018-08-10T10:43:46.540Z,1423.13
2018-08-10T10:44:46.568Z,1136.25
2018-08-10T10:45:46.605Z,1153.13
2018-08-10T10:46:46.634Z,1248.75
2018-08-10T10:47:46.669Z,2559.38
2018-08-10T10:48:46.694Z,1456.88
2018-08-10T10:49:46.733Z,1260.00
2018-08-10T10:50:46.809Z,1209.38
2018-08-10T10:51:46.785Z,1243.13
2018-08-10T10:52:46.823Z,1265.63
2018-08-10T10:53:46.849Z,1164.38
2018-08-10T10:54:46.888Z,1755.00
2018-08-10T10:55:46.920Z,1119.38
2018-08-10T10:56:47.064Z,1451.25
2018-08-10T10:57:46.978Z,1102.50
2018-08-10T10:58:47.003Z,995.63
2018-08-10T10:59:47.029Z,995.63
2018-08-10T11:00:47.068Z,1057.50
2018-08-10T11:01:47.093Z,1091.25
2018-08-10T11:02:47.120Z,1012.50
2018-08-10T11:03:47.159Z,1035.00
2018-08-10T11:04:47.183Z,922.50
2018-08-10T11:05:47.213Z,888.75
2018-08-10T11:06:47.251Z,826.88
2018-08-10T11:07:47.276Z,736.88
2018-08-10T11:08:47.302Z,871.88
2018-08-10T11:09:47.339Z,2598.75
2018-08-10T11:10:47.365Z,4213.13
2018-08-10T11:11:47.390Z,4196.25
2018-08-10T11:12:47.419Z,4134.38
2018-08-10T11:13:47.455Z,3976.88
2018-08-10T11:14:47.486Z,4072.50
2018-08-10T11:15:47.518Z,1726.88
2018-08-10T11:16:47.545Z,1181.25
2018-08-10T11:17:47.570Z,3549.38
2018-08-10T11:18:47.609Z,5107.50
2018-08-10T11:19:47.636Z,5146.88
2018-08-10T11:20:47.674Z,5096.25
2018-08-10T11:21:47.699Z,4905.00
2018-08-10T11:22:47.738Z,4741.88
2018-08-10T11:23:47.776Z,4770.00
2018-08-10T11:24:47.802Z,2705.63
2018-08-10T11:25:47.950Z,877.50
2018-08-10T11:26:47.881Z,798.75
2018-08-10T11:27:47.905Z,838.13
2018-08-10T11:28:47.945Z,973.13
2018-08-10T11:29:47.995Z,1113.75
2018-08-10T11:30:48.007Z,2795.63
2018-08-10T11:31:48.049Z,4556.25
2018-08-10T11:32:48.085Z,3206.25
2018-08-10T11:33:48.110Z,1276.88
2018-08-10T11:34:48.150Z,4685.63
2018-08-10T11:35:48.176Z,4865.63
2018-08-10T11:36:48.212Z,4955.63
2018-08-10T11:37:48.256Z,5107.50
2018-08-10T11:38:48.277Z,4972.50
2018-08-10T11:39:48.319Z,5360.63
2018-08-10T11:40:48.356Z,5355.00
2018-08-10T11:41:48.382Z,5400.00
2018-08-10T11:42:48.419Z,1074.38
2018-08-10T11:43:48.457Z,1625.63
2018-08-10T11:44:48.497Z,4899.38
2018-08-10T11:45:48.521Z,877.50
2018-08-10T11:46:48.563Z,776.25
2018-08-10T11:47:48.601Z,748.13
2018-08-10T11:48:48.640Z,1839.38
2018-08-10T11:49:48.662Z,866.25
2018-08-10T11:50:48.700Z,624.38
2018-08-10T11:51:48.740Z,652.50
2018-08-10T11:52:48.769Z,838.13
2018-08-10T11:53:48.803Z,2981.25
2018-08-10T11:54:48.845Z,5495.63
2018-08-10T11:55:48.869Z,3172.50
2018-08-10T11:56:48.906Z,5169.38
2018-08-10T11:57:48.932Z,4651.88
2018-08-10T11:58:48.971Z,4798.13
2018-08-10T11:59:49.000Z,4590.00
2018-08-10T12:00:49.038Z,4072.50
2018-08-10T12:01:49.088Z,736.88
2018-08-10T12:02:49.112Z,663.75
2018-08-10T12:03:49.137Z,585.00
2018-08-10T12:04:49.165Z,759.38
2018-08-10T12:05:49.257Z,5163.75
2018-08-10T12:06:49.242Z,5551.88
2018-08-10T12:07:49.266Z,5315.63
2018-08-10T12:08:49.306Z,6406.88
2018-08-10T12:09:49.331Z,7036.88
2018-08-10T12:10:49.369Z,6952.50
2018-08-10T12:11:49.408Z,5810.63
2018-08-10T12:12:49.487Z,6328.13
2018-08-10T12:13:49.473Z,5962.50
2018-08-10T12:14:49.511Z,6311.25
2018-08-10T12:15:49.540Z,5923.13
2018-08-10T12:16:49.574Z,5760.00
2018-08-10T12:17:49.614Z,5816.25
2018-08-10T12:18:49.639Z,6316.88
2018-08-10T12:19:49.677Z,6148.13
2018-08-10T12:20:49.716Z,5900.63
2018-08-10T12:21:49.754Z,5793.75
2018-08-10T12:22:49.794Z,5658.75
2018-08-10T12:23:49.819Z,5619.38
2018-08-10T12:24:49.957Z,905.63
2018-08-10T12:25:49.896Z,2593.13
2018-08-10T12:26:49.934Z,5990.63
2018-08-10T12:27:49.973Z,3256.88
2018-08-10T12:28:50.013Z,652.50
2018-08-10T12:29:50.049Z,5968.13
2018-08-10T12:30:50.076Z,2103.75
2018-08-10T12:31:50.114Z,933.75
2018-08-10T12:32:50.152Z,6001.88
2018-08-10T12:33:50.190Z,5281.88
2018-08-10T12:34:50.228Z,5495.63
2018-08-10T12:35:50.266Z,6435.00
2018-08-10T12:36:50.292Z,6210.00
2018-08-10T12:37:50.335Z,6165.00
2018-08-10T12:38:50.371Z,6463.13